Time;durP1;ratioP1;P1;durP2;ratioP2;P2;SDS_P1;SDS_P2;PMS_P1;PMS_P2;Temp;Humidity;BMP_temperature;BMP_pressure;BME280_temperature;BME280_humidity;BME280_pressure;Samples;Min_cycle;Max_cycle;Signal;HPM_P1;HPM_P2
2022/06/12 00:00:43;;;;;;;;;6.00;6.00;;;;;22.48;68.58;100408.41;146637;684;45018;-82
2022/06/12 00:03:35;;;;;;;;;6.00;5.67;;;;;22.49;69.16;100418.09;146638;618;46008;-74
2022/06/12 00:06:27;;;;;;;;;8.00;5.50;;;;;22.44;70.98;100404.03;146637;571;45018;-78
2022/06/12 00:09:21;;;;;;;;;5.00;5.00;;;;;22.35;70.67;100411.09;146643;569;45008;-85
2022/06/12 00:12:13;;;;;;;;;7.00;5.00;;;;;22.24;70.13;100404.97;146640;579;45018;-83
2022/06/12 00:15:05;;;;;;;;;5.67;4.33;;;;;22.18;70.59;100406.69;146639;595;45019;-85
2022/06/12 00:17:59;;;;;;;;;6.00;6.00;;;;;22.14;70.55;100404.03;146640;628;45018;-85
2022/06/12 00:21:10;;;;;;;;;5.25;5.00;;;;;22.13;70.53;100404.91;146642;566;45019;-86
2022/06/12 00:24:06;;;;;;;;;7.00;6.67;;;;;22.15;71.00;100397.00;146639;593;45010;-77
2022/06/12 00:27:01;;;;;;;;;4.67;4.00;;;;;22.11;72.32;100396.09;146638;650;45018;-75
2022/06/12 00:29:53;;;;;;;;;6.00;6.00;;;;;22.04;72.00;100397.00;146638;696;45018;-75
2022/06/12 00:32:49;;;;;;;;;7.00;7.00;;;;;21.97;71.64;100389.97;146641;639;45018;-75
2022/06/12 00:35:41;;;;;;;;;6.00;6.00;;;;;21.93;71.06;100396.13;146635;571;45012;-75
2022/06/12 00:38:33;;;;;;;;;7.50;6.00;;;;;21.94;71.30;100389.97;146641;624;45010;-74
2022/06/12 00:41:26;;;;;;;;;6.75;5.50;;;;;21.94;72.66;100392.63;146638;691;45915;-76
2022/06/12 00:44:23;;;;;;;;;6.00;5.00;;;;;21.89;73.04;100382.06;146642;590;45010;-82
2022/06/12 00:47:18;;;;;;;;;5.00;5.00;;;;;21.81;73.27;100378.56;146636;570;45018;-77
2022/06/12 00:50:11;;;;;;;;;6.00;5.33;;;;;21.75;73.71;100380.31;146641;613;45018;-81
2022/06/12 00:53:03;;;;;;;;;6.25;5.75;;;;;21.69;72.58;100378.56;146617;583;46032;-78
2022/06/12 00:56:20;;;;;;;;;6.33;5.33;;;;;21.63;72.78;100379.41;146608;655;46010;-81
2022/06/12 00:59:20;;;;;;;;;5.75;5.75;;;;;21.59;71.76;100375.03;146605;607;46018;-82
2022/06/12 01:02:16;;;;;;;;;7.50;6.75;;;;;21.56;73.49;100372.41;146608;678;46018;-82
2022/06/12 01:08:25;;;;;;;;;6.00;6.00;;;;;21.43;72.76;100366.22;146611;607;46012;-81
2022/06/12 01:11:22;;;;;;;;;5.67;5.67;;;;;21.43;73.48;100362.69;146606;574;46916;-80
2022/06/12 01:14:17;;;;;;;;;7.00;6.75;;;;;20.50;72.64;100202.59;146611;629;45024;-85
2022/06/12 01:17:10;;;;;;;;;8.00;7.25;;;;;21.42;73.23;100367.09;146603;630;46018;-82
2022/06/12 01:20:10;;;;;;;;;5.00;5.00;;;;;20.50;74.00;100205.22;146608;625;46012;-81
2022/06/12 01:23:37;;;;;;;;;6.75;6.75;;;;;21.35;71.57;100360.06;146606;587;46010;-80
2022/06/12 01:27:05;;;;;;;;;6.75;5.00;;;;;21.35;71.90;100348.59;146606;564;46019;-81
2022/06/12 01:30:23;;;;;;;;;8.00;6.50;;;;;21.15;70.94;100311.63;146605;699;46915;-80
2022/06/12 01:33:43;;;;;;;;;9.00;7.00;;;;;20.33;71.56;100160.38;146609;616;46019;-80
2022/06/12 01:37:00;;;;;;;;;5.25;5.25;;;;;21.53;72.14;100360.97;146605;564;46018;-80
2022/06/12 01:40:37;;;;;;;;;8.00;6.33;;;;;20.12;70.43;100123.47;146610;646;46008;-82
2022/06/12 01:44:13;;;;;;;;;7.00;7.00;;;;;21.40;72.04;100355.69;146606;619;46018;-84
2022/06/12 01:47:35;;;;;;;;;6.33;6.33;;;;;20.17;70.30;100151.56;146612;606;46018;-86
2022/06/12 01:51:05;;;;;;;;;8.00;5.50;;;;;20.97;70.99;100287.00;146606;712;46027;-78
2022/06/12 01:54:29;;;;;;;;;8.00;6.75;;;;;21.34;70.72;100350.34;146623;597;46008;-75
2022/06/12 01:57:32;;;;;;;;;8.50;6.25;;;;;21.40;72.31;100350.41;146617;570;46019;-76
2022/06/12 02:00:27;;;;;;;;;9.00;7.00;;;;;21.40;72.30;100342.47;146620;613;46008;-74
2022/06/12 02:03:46;;;;;;;;;3.67;3.33;;;;;21.38;71.05;100349.50;146622;575;45018;-73
2022/06/12 02:06:47;;;;;;;;;6.00;5.50;;;;;21.34;70.63;100345.09;146617;644;46018;-82
2022/06/12 02:10:17;;;;;;;;;5.33;5.00;;;;;21.38;69.92;100349.50;146616;594;45914;-79
2022/06/12 02:13:24;;;;;;;;;6.00;5.00;;;;;21.44;70.37;100341.59;146619;592;46008;-74
2022/06/12 02:16:25;;;;;;;;;4.00;3.67;;;;;21.49;68.94;100349.50;146617;602;46018;-76
2022/06/12 02:19:29;;;;;;;;;5.75;4.75;;;;;21.56;67.30;100345.13;146621;617;46019;-76
2022/06/12 02:22:26;;;;;;;;;4.00;4.00;;;;;21.61;66.24;100344.22;146618;640;46010;-77
2022/06/12 02:25:23;;;;;;;;;3.00;3.00;;;;;21.67;66.47;100335.44;146619;589;46018;-77
2022/06/12 02:28:20;;;;;;;;;6.33;4.67;;;;;20.80;66.02;100175.41;146618;586;46010;-83
2022/06/12 02:31:25;;;;;;;;;6.00;6.00;;;;;20.87;65.54;100179.84;146618;621;46008;-83
2022/06/12 02:34:25;;;;;;;;;4.00;3.33;;;;;21.89;65.15;100349.50;146613;583;47915;-83
2022/06/12 02:37:30;;;;;;;;;4.33;4.33;;;;;21.93;64.35;100351.25;146619;633;46018;-80
2022/06/12 02:40:35;;;;;;;;;6.67;6.67;;;;;21.95;64.68;100346.84;146620;597;46019;-81
2022/06/12 02:43:32;;;;;;;;;3.67;3.00;;;;;21.99;64.30;100347.72;146620;573;46008;-79
2022/06/12 02:46:47;;;;;;;;;5.67;5.00;;;;;21.99;64.48;100348.59;146617;649;46010;-74
2022/06/12 02:49:43;;;;;;;;;4.33;3.33;;;;;22.04;65.03;100349.47;146622;585;46008;-75
2022/06/12 02:53:13;;;;;;;;;5.67;5.00;;;;;20.60;64.35;100114.81;146619;595;46010;-84
2022/06/12 02:57:08;;;;;;;;;4.00;4.00;;;;;21.91;64.66;100353.03;146620;640;46008;-76
2022/06/12 03:00:16;;;;;;;;;4.50;3.50;;;;;21.91;65.24;100368.87;146616;625;46018;-79
2022/06/12 03:03:35;;;;;;;;;5.00;4.00;;;;;21.85;65.83;100366.22;146620;575;46010;-82
2022/06/12 03:06:31;;;;;;;;;2.33;2.33;;;;;21.91;66.22;100361.81;146618;578;46010;-85
2022/06/12 03:09:24;;;;;;;;;5.00;4.00;;;;;21.92;66.63;100366.22;146622;620;45018;-80
2022/06/12 03:12:17;;;;;;;;;5.00;4.67;;;;;21.95;66.63;100364.47;146620;682;45027;-77
2022/06/12 03:15:30;;;;;;;;;6.00;5.00;;;;;21.98;66.30;100362.69;146620;631;46018;-80
2022/06/12 03:18:33;;;;;;;;;5.00;4.67;;;;;22.02;66.23;100369.72;146621;585;45914;-79
2022/06/12 03:21:51;;;;;;;;;6.00;6.00;;;;;22.06;67.04;100371.50;146619;606;45018;-78
2022/06/12 03:25:22;;;;;;;;;8.67;7.33;;;;;22.07;66.69;100367.09;146618;670;46011;-80
2022/06/12 03:29:02;;;;;;;;;5.00;5.00;;;;;22.11;67.10;100384.66;146621;638;46018;-77
2022/06/12 03:32:18;;;;;;;;;6.00;6.00;;;;;22.12;66.64;100373.25;146618;573;46912;-78
2022/06/12 03:35:41;;;;;;;;;4.00;4.00;;;;;21.15;66.12;100211.44;146617;623;46018;-78
2022/06/12 03:39:15;;;;;;;;;4.00;4.00;;;;;22.21;64.92;100386.47;146618;608;46018;-79
2022/06/12 03:42:27;;;;;;;;;5.67;4.00;;;;;22.24;64.63;100386.47;146622;580;46019;-78
2022/06/12 03:45:29;;;;;;;;;4.00;4.00;;;;;22.28;64.46;100382.06;146618;603;46010;-78
2022/06/12 03:48:34;;;;;;;;;3.00;3.00;;;;;22.29;63.97;100381.16;146620;581;46019;-77
2022/06/12 03:51:44;;;;;;;;;4.00;3.00;;;;;22.13;63.75;100360.03;146615;579;46018;-78
2022/06/12 03:54:53;;;;;;;;;3.33;2.00;;;;;22.27;63.84;100380.28;146621;564;46019;-79
2022/06/12 03:57:57;;;;;;;;;4.00;4.00;;;;;22.24;63.87;100381.19;146617;627;46012;-79
2022/06/12 04:00:52;;;;;;;;;2.33;2.33;;;;;22.24;63.92;100388.22;146619;645;46018;-77
2022/06/12 04:03:48;;;;;;;;;3.00;3.00;;;;;22.24;63.48;100388.22;146618;604;46010;-79
2022/06/12 04:06:41;;;;;;;;;2.67;2.67;;;;;22.31;63.30;100396.13;146619;620;46018;-77
2022/06/12 04:09:38;;;;;;;;;4.00;4.00;;;;;22.44;63.40;100396.09;146619;647;46019;-79
2022/06/12 04:12:34;;;;;;;;;4.00;4.00;;;;;22.57;63.61;100396.06;146619;573;46018;-81
2022/06/12 04:15:35;;;;;;;;;3.33;3.33;;;;;22.70;62.86;100403.94;146615;583;46914;-81
2022/06/12 04:18:30;;;;;;;;;4.67;4.67;;;;;22.82;63.13;100409.19;146620;569;46019;-79
2022/06/12 04:21:54;;;;;;;;;3.67;3.67;;;;;21.82;62.42;100216.66;146618;586;46914;-80
2022/06/12 04:24:50;;;;;;;;;4.33;4.33;;;;;23.07;62.19;100399.41;146622;602;46019;-80
2022/06/12 04:27:47;;;;;;;;;4.00;4.00;;;;;23.18;62.11;100402.03;146618;631;46010;-80
2022/06/12 04:30:42;;;;;;;;;5.33;5.33;;;;;23.29;62.29;100408.97;146621;640;46008;-86
2022/06/12 04:34:11;;;;;;;;;6.00;5.00;;;;;23.45;62.80;100395.66;146616;605;46019;-85
2022/06/12 04:37:14;;;;;;;;;3.00;3.00;;;;;23.57;62.12;100402.63;146619;599;46012;-82
2022/06/12 04:40:10;;;;;;;;;4.00;4.00;;;;;23.70;62.19;100410.50;146618;600;45019;-85
2022/06/12 04:43:02;;;;;;;;;4.00;4.00;;;;;23.90;61.81;100406.84;146620;635;46008;-81
2022/06/12 04:45:54;;;;;;;;;4.67;4.67;;;;;24.09;60.76;100408.44;146618;576;46018;-80
2022/06/12 04:48:48;;;;;;;;;5.00;5.00;;;;;24.25;59.67;100414.44;146621;569;45917;-79
2022/06/12 04:51:40;;;;;;;;;4.67;4.00;;;;;24.37;58.12;100408.16;146620;602;46018;-82
2022/06/12 04:54:34;;;;;;;;;5.00;5.00;;;;;24.48;57.22;100408.94;146620;606;46009;-82
2022/06/12 04:57:27;;;;;;;;;6.00;4.00;;;;;24.60;56.95;100398.19;146619;675;45019;-84
2022/06/12 05:00:21;;;;;;;;;9.00;7.00;;;;;24.74;57.48;100408.66;146621;577;46019;-82
2022/06/12 05:03:14;;;;;;;;;3.00;3.00;;;;;24.92;57.16;100417.28;146616;612;46012;-82
2022/06/12 05:06:07;;;;;;;;;3.33;3.33;;;;;25.08;56.38;100406.47;146618;602;45018;-79
2022/06/12 05:09:01;;;;;;;;;4.33;4.33;;;;;25.22;55.33;100427.53;146617;617;46019;-77
2022/06/12 05:11:53;;;;;;;;;6.00;5.00;;;;;25.29;55.71;100423.00;146619;687;46018;-75
2022/06/12 05:14:46;;;;;;;;;4.67;3.33;;;;;25.35;55.71;100417.59;146618;591;46010;-89
2022/06/12 05:17:38;;;;;;;;;3.00;3.00;;;;;25.39;54.51;100422.00;146620;673;46019;-84
2022/06/12 05:20:34;;;;;;;;;6.67;6.33;;;;;25.29;55.15;100426.53;146620;575;46010;-85
2022/06/12 05:23:26;;;;;;;;;5.00;5.00;;;;;25.15;55.86;100431.16;146619;564;46018;-84
2022/06/12 05:26:20;;;;;;;;;5.00;5.00;;;;;24.95;54.15;100425.19;146616;583;46018;-86
2022/06/12 05:29:18;;;;;;;;;6.00;6.00;;;;;24.77;56.09;100427.19;146621;609;46018;-82
2022/06/12 05:32:11;;;;;;;;;6.33;4.67;;;;;24.66;56.21;100434.38;146617;586;46019;-81
2022/06/12 05:35:03;;;;;;;;;4.33;3.67;;;;;22.85;57.03;100134.25;146620;635;46018;-82
2022/06/12 05:37:56;;;;;;;;;5.67;5.67;;;;;24.61;56.84;100426.50;146615;618;46018;-80
2022/06/12 05:40:48;;;;;;;;;5.67;5.67;;;;;24.57;55.40;100427.41;146623;617;46012;-80
2022/06/12 05:43:40;;;;;;;;;4.67;4.00;;;;;24.53;54.53;100433.63;146618;652;46018;-78
2022/06/12 05:46:33;;;;;;;;;5.33;4.33;;;;;24.49;56.18;100426.63;146622;604;46018;-84
2022/06/12 05:49:25;;;;;;;;;5.00;5.00;;;;;24.54;55.42;100430.06;146617;577;46010;-84
2022/06/12 05:52:16;;;;;;;;;7.00;6.00;;;;;24.68;55.29;100416.69;146621;581;46008;-80
2022/06/12 05:55:10;;;;;;;;;4.00;4.00;;;;;24.77;54.47;100416.59;146620;595;46012;-79
2022/06/12 05:58:01;;;;;;;;;5.67;5.67;;;;;24.84;54.77;100417.38;146623;601;45018;-77
2022/06/12 06:00:55;;;;;;;;;5.00;5.00;;;;;24.86;54.54;100415.59;146617;570;46010;-79
2022/06/12 06:03:47;;;;;;;;;6.00;6.00;;;;;24.83;53.93;100418.28;146621;599;46008;-78
2022/06/12 06:06:54;;;;;;;;;4.67;4.67;;;;;24.83;55.49;100411.22;146614;634;46018;-77
2022/06/12 06:09:46;;;;;;;;;4.33;4.33;;;;;24.83;55.48;100407.69;146620;640;46019;-77
2022/06/12 06:12:39;;;;;;;;;7.67;5.67;;;;;24.98;55.53;100415.41;146616;584;46018;-77
2022/06/12 06:15:31;;;;;;;;;4.00;4.00;;;;;25.23;55.22;100412.47;146621;581;46019;-76
2022/06/12 06:18:24;;;;;;;;;5.67;5.33;;;;;25.57;55.23;100416.37;146619;648;45019;-76
2022/06/12 06:21:18;;;;;;;;;5.00;4.67;;;;;25.86;54.30;100411.53;146619;572;46008;-76
2022/06/12 06:24:12;;;;;;;;;4.00;4.00;;;;;25.95;52.01;100400.75;146617;650;46018;-76
2022/06/12 06:27:04;;;;;;;;;8.33;7.33;;;;;25.92;52.04;100403.47;146623;648;46018;-77
2022/06/12 06:29:56;;;;;;;;;6.33;4.67;;;;;25.85;52.57;100408.03;146618;573;46019;-77
2022/06/12 06:32:49;;;;;;;;;3.33;2.33;;;;;25.79;51.37;100411.66;146622;677;45034;-77
2022/06/12 06:35:43;;;;;;;;;6.67;5.00;;;;;25.74;52.39;100416.13;146617;564;46018;-77
2022/06/12 06:38:35;;;;;;;;;6.67;5.67;;;;;25.72;52.34;100430.34;146620;601;46019;-77
2022/06/12 06:41:28;;;;;;;;;7.00;7.00;;;;;25.68;51.94;100418.91;146616;681;46018;-80
2022/06/12 06:47:31;;;;;;;;;6.67;5.00;;;;;25.64;51.76;100425.16;146622;650;45021;-79
2022/06/12 06:50:25;;;;;;;;;5.33;4.33;;;;;25.60;50.57;100420.78;146622;681;45018;-79
2022/06/12 06:53:18;;;;;;;;;7.00;6.00;;;;;25.55;50.98;100414.69;146617;581;46010;-80
2022/06/12 06:56:10;;;;;;;;;6.00;5.00;;;;;25.49;50.58;100428.91;146620;612;46018;-80
2022/06/12 06:59:02;;;;;;;;;6.67;5.67;;;;;25.45;51.60;100410.37;146618;625;46013;-82
2022/06/12 07:01:55;;;;;;;;;4.00;4.00;;;;;25.42;51.89;100416.66;146619;573;46012;-83
2022/06/12 07:04:47;;;;;;;;;6.00;5.00;;;;;25.39;51.34;100416.69;146617;585;46018;-82
2022/06/12 07:07:39;;;;;;;;;5.33;5.33;;;;;25.35;52.01;100429.09;146619;622;46018;-85
2022/06/12 07:10:34;;;;;;;;;6.33;6.33;;;;;25.34;52.44;100427.34;146617;593;46012;-80
2022/06/12 07:13:27;;;;;;;;;6.00;6.00;;;;;25.34;51.51;100410.56;146622;638;46008;-79
2022/06/12 07:16:20;;;;;;;;;7.00;7.00;;;;;25.32;51.83;100418.53;146619;606;46011;-79
2022/06/12 07:19:13;;;;;;;;;6.67;5.00;;;;;25.32;52.76;100417.66;146623;569;45026;-79
2022/06/12 07:22:05;;;;;;;;;8.00;7.33;;;;;24.40;53.75;100254.44;146618;621;46010;-78
2022/06/12 07:24:57;;;;;;;;;6.00;5.33;;;;;25.36;54.47;100422.03;146623;611;46018;-76
2022/06/12 07:27:51;;;;;;;;;6.33;6.33;;;;;25.38;54.11;100416.69;146620;573;45025;-78
2022/06/12 07:30:43;;;;;;;;;7.33;7.33;;;;;25.40;54.25;100414.91;146621;565;45031;-79
2022/06/12 07:33:37;;;;;;;;;6.67;5.33;;;;;25.41;53.14;100409.56;146617;587;46010;-78
2022/06/12 07:36:30;;;;;;;;;6.33;6.00;;;;;25.45;53.21;100418.34;146624;583;45019;-80
2022/06/12 07:39:31;;;;;;;;;6.33;6.33;;;;;25.52;53.58;100415.59;146616;632;46018;-79
2022/06/12 07:42:23;;;;;;;;;7.00;6.67;;;;;25.61;53.06;100413.69;146622;679;46008;-79
2022/06/12 07:45:15;;;;;;;;;6.67;6.00;;;;;25.68;52.15;100424.19;146619;724;46011;-79
2022/06/12 07:48:08;;;;;;;;;4.67;4.67;;;;;25.76;50.81;100418.75;146622;649;46018;-78
2022/06/12 07:51:00;;;;;;;;;5.33;5.33;;;;;25.81;48.57;100427.56;146620;583;45025;-78
2022/06/12 07:53:54;;;;;;;;;6.00;5.00;;;;;25.85;49.97;100433.72;146621;569;46008;-77
2022/06/12 07:56:46;;;;;;;;;3.00;3.00;;;;;25.87;50.18;100426.59;146621;578;45018;-79
2022/06/12 07:59:39;;;;;;;;;7.33;7.00;;;;;25.90;50.58;100422.09;146622;579;45019;-79
2022/06/12 08:02:31;;;;;;;;;9.00;8.33;;;;;25.97;49.90;100420.22;146616;579;46018;-78
2022/06/12 08:05:25;;;;;;;;;7.33;7.00;;;;;26.03;49.99;100422.78;146620;646;46018;-79
2022/06/12 08:08:17;;;;;;;;;5.33;4.67;;;;;26.09;50.07;100414.69;146618;599;45024;-78
2022/06/12 08:11:10;;;;;;;;;7.67;6.00;;;;;26.33;50.28;100423.16;146621;564;46018;-78
2022/06/12 08:14:02;;;;;;;;;5.33;5.33;;;;;26.51;49.15;100416.63;146620;565;46010;-77
2022/06/12 08:16:55;;;;;;;;;8.00;7.00;;;;;26.62;48.85;100431.47;146623;595;46008;-78
2022/06/12 08:23:30;;;;;;;;;3.33;3.33;;;;;25.71;50.82;100272.78;146621;571;45019;-79
2022/06/12 08:26:29;;;;;;;;;5.00;5.00;;;;;26.61;49.25;100427.06;146619;590;45020;-78
2022/06/12 08:29:21;;;;;;;;;4.00;4.00;;;;;26.60;48.49;100433.28;146620;602;46018;-80
2022/06/12 08:32:21;;;;;;;;;4.00;4.00;;;;;26.58;50.03;100432.44;146621;668;46010;-80
2022/06/12 08:35:19;;;;;;;;;6.67;5.33;;;;;26.59;47.92;100442.16;146621;582;46018;-77
2022/06/12 08:38:12;;;;;;;;;5.67;4.33;;;;;26.57;47.39;100438.66;146617;600;46019;-78
2022/06/12 08:41:30;;;;;;;;;4.33;4.33;;;;;26.56;48.73;100444.88;146622;581;46018;-76
2022/06/12 08:44:52;;;;;;;;;4.67;4.67;;;;;25.61;51.41;100276.53;146616;574;46018;-80
2022/06/12 08:47:57;;;;;;;;;4.00;4.00;;;;;26.45;47.39;100438.88;146619;591;46018;-79
2022/06/12 08:51:08;;;;;;;;;5.67;5.67;;;;;26.45;49.11;100441.53;146617;570;46019;-79
2022/06/12 08:54:14;;;;;;;;;6.00;5.00;;;;;26.44;48.76;100440.63;146622;600;46008;-76
2022/06/12 08:57:14;;;;;;;;;5.33;5.33;;;;;26.45;48.39;100460.16;146617;583;46019;-78
2022/06/12 09:00:19;;;;;;;;;8.00;8.00;;;;;26.43;49.26;100456.63;146618;641;46019;-80
2022/06/12 09:03:18;;;;;;;;;6.33;6.33;;;;;26.44;49.76;100453.06;146619;573;45914;-79
2022/06/12 09:06:39;;;;;;;;;4.33;4.33;;;;;26.49;51.30;100456.56;146621;588;46009;-79
2022/06/12 09:10:10;;;;;;;;;5.00;4.00;;;;;26.54;50.18;100459.97;146618;603;46010;-80
2022/06/12 09:13:15;;;;;;;;;5.00;5.00;;;;;26.57;49.78;100462.59;146623;574;46012;-77
2022/06/12 09:16:27;;;;;;;;;4.00;4.00;;;;;26.63;50.44;100465.13;146619;580;46010;-80
2022/06/12 09:20:11;;;;;;;;;7.00;6.00;;;;;25.50;49.97;100266.06;146622;577;46008;-79
2022/06/12 09:23:58;;;;;;;;;6.67;6.33;;;;;26.72;50.09;100459.62;146619;600;45018;-80
2022/06/12 09:27:18;;;;;;;;;5.00;5.00;;;;;26.76;50.14;100465.81;146621;567;46018;-79
2022/06/12 09:30:28;;;;;;;;;9.00;7.00;;;;;26.84;49.97;100470.97;146621;598;45020;-78
2022/06/12 09:33:48;;;;;;;;;9.33;7.67;;;;;26.88;50.04;100457.53;146616;624;45026;-78
2022/06/12 09:40:42;;;;;;;;;8.33;7.67;;;;;27.13;48.54;100455.28;146620;583;46012;-78
2022/06/12 09:44:10;;;;;;;;;6.00;6.00;;;;;27.19;48.25;100464.94;146618;579;45049;-73
2022/06/12 09:47:35;;;;;;;;;6.00;5.00;;;;;26.19;48.55;100275.44;146620;617;46018;-75
2022/06/12 09:50:58;;;;;;;;;7.33;6.00;;;;;27.24;47.90;100457.75;146620;646;46010;-78
2022/06/12 09:54:31;;;;;;;;;8.00;7.00;;;;;27.25;49.17;100458.59;146623;589;45045;-79
2022/06/12 09:57:57;;;;;;;;;5.33;5.00;;;;;26.83;49.51;100378.75;146620;585;46019;-78
2022/06/12 10:01:18;;;;;;;;;6.00;5.33;;;;;27.30;48.04;100454.94;146622;570;45043;-72
2022/06/12 10:04:51;;;;;;;;;11.00;7.67;;;;;26.32;50.07;100277.84;146616;576;46019;-73
2022/06/12 10:08:10;;;;;;;;;6.33;6.33;;;;;27.49;49.94;100468.72;146616;649;45018;-74
2022/06/12 10:11:14;;;;;;;;;5.00;5.00;;;;;27.56;47.35;100453.47;146621;646;46011;-73
2022/06/12 10:14:22;;;;;;;;;9.67;9.00;;;;;27.62;47.58;100456.88;146621;611;46008;-78
2022/06/12 10:17:32;;;;;;;;;9.00;7.33;;;;;27.72;48.89;100444.19;146621;580;45031;-78
2022/06/12 10:20:32;;;;;;;;;5.00;4.00;;;;;27.85;48.09;100445.72;146626;581;45019;-77
2022/06/12 10:23:27;;;;;;;;;7.67;6.67;;;;;28.07;45.91;100446.06;146616;564;46018;-77
2022/06/12 10:26:27;;;;;;;;;7.00;7.00;;;;;28.24;46.49;100450.06;146624;592;46008;-78
2022/06/12 10:29:24;;;;;;;;;7.33;7.33;;;;;28.40;46.67;100453.22;146618;605;45019;-76
2022/06/12 10:32:20;;;;;;;;;6.00;5.00;;;;;28.60;44.34;100442.03;146622;566;46018;-78
2022/06/12 10:35:18;;;;;;;;;8.00;8.00;;;;;28.59;45.56;100443.81;146620;585;46010;-78
2022/06/12 10:38:10;;;;;;;;;9.00;9.00;;;;;27.48;45.90;100280.56;146621;582;46008;-82
2022/06/12 10:41:05;;;;;;;;;6.33;5.33;;;;;28.48;44.97;100446.78;146618;596;46010;-77
2022/06/12 10:44:00;;;;;;;;;3.67;3.67;;;;;28.68;44.42;100442.69;146622;631;46018;-78
2022/06/12 10:46:52;;;;;;;;;5.33;5.33;;;;;28.93;44.53;100435.72;146618;580;46012;-75
2022/06/12 10:49:44;;;;;;;;;7.67;7.67;;;;;29.13;43.24;100442.31;146622;597;46008;-78
2022/06/12 10:52:38;;;;;;;;;3.67;3.67;;;;;29.31;42.89;100448.91;146616;570;46914;-79
2022/06/12 10:56:02;;;;;;;;;5.00;5.00;;;;;29.41;44.23;100450.37;146622;620;46019;-78
2022/06/12 10:59:37;;;;;;;;;6.33;6.33;;;;;29.36;45.41;100450.50;146620;630;46019;-78
2022/06/12 11:03:10;;;;;;;;;6.00;5.00;;;;;29.34;45.61;100438.13;146618;590;46018;-76
2022/06/12 11:06:17;;;;;;;;;14.00;12.00;;;;;29.39;45.81;100441.53;146608;563;46012;-78
2022/06/12 11:09:27;;;;;;;;;55.25;43.75;;;;;29.59;44.69;100431.06;146610;573;46008;-75
2022/06/12 11:12:54;;;;;;;;;29.00;24.50;;;;;29.79;43.77;100442.97;146607;605;46010;-77
2022/06/12 11:16:37;;;;;;;;;35.25;31.25;;;;;28.78;45.49;100279.66;146602;578;47914;-77
2022/06/12 11:20:04;;;;;;;;;9.67;7.67;;;;;29.56;45.25;100446.34;146618;600;46018;-77
2022/06/12 11:23:25;;;;;;;;;11.50;10.00;;;;;29.34;44.95;100432.78;146613;629;46018;-77
2022/06/12 11:27:06;;;;;;;;;9.67;9.67;;;;;29.34;45.42;100436.31;146615;604;46010;-77
2022/06/12 11:30:30;;;;;;;;;8.00;8.00;;;;;28.38;45.01;100274.59;146623;618;45018;-78
2022/06/12 11:34:03;;;;;;;;;13.50;13.50;;;;;28.31;44.35;100265.88;146613;578;46010;-78
2022/06/12 11:37:39;;;;;;;;;12.75;12.75;;;;;28.65;45.00;100336.94;146613;571;46018;-77
2022/06/12 11:41:15;;;;;;;;;11.00;10.00;;;;;28.09;46.92;100284.28;146617;583;46010;-78
2022/06/12 11:44:45;;;;;;;;;11.00;10.25;;;;;28.84;45.38;100433.34;146616;689;46018;-78
2022/06/12 11:48:18;;;;;;;;;10.00;8.00;;;;;28.76;45.63;100430.91;146619;592;45019;-78
2022/06/12 11:52:02;;;;;;;;;5.33;5.33;;;;;27.73;47.55;100272.81;146620;633;47018;-78
2022/06/12 11:55:20;;;;;;;;;10.33;10.00;;;;;28.60;46.66;100429.59;146627;582;45019;-78
2022/06/12 11:58:40;;;;;;;;;7.00;6.33;;;;;28.52;44.91;100431.56;146638;605;45018;-78
2022/06/12 12:01:49;;;;;;;;;7.33;6.00;;;;;28.44;45.98;100436.22;146639;595;45010;-77
2022/06/12 12:05:37;;;;;;;;;6.67;6.67;;;;;28.39;47.46;100425.66;146641;597;45010;-78
2022/06/12 12:09:18;;;;;;;;;6.00;5.00;;;;;27.38;47.77;100255.97;146636;603;45018;-76
2022/06/12 12:12:16;;;;;;;;;7.00;7.00;;;;;28.47;45.49;100426.34;146643;642;45010;-78
2022/06/12 12:15:17;;;;;;;;;3.00;3.00;;;;;28.49;44.40;100416.53;146635;593;45914;-78
2022/06/12 12:18:16;;;;;;;;;6.00;4.67;;;;;28.52;45.05;100432.44;146641;564;45917;-77
2022/06/12 12:21:16;;;;;;;;;6.00;5.00;;;;;28.53;43.34;100401.31;146639;664;45018;-78
2022/06/12 12:24:14;;;;;;;;;6.33;5.00;;;;;28.57;44.57;100418.09;146640;570;46008;-80
2022/06/12 12:27:10;;;;;;;;;7.00;5.00;;;;;28.68;42.13;100400.00;146638;652;45010;-80
2022/06/12 12:30:04;;;;;;;;;3.00;3.00;;;;;28.66;41.08;100394.72;146641;564;45916;-78
2022/06/12 12:32:59;;;;;;;;;7.00;5.00;;;;;28.56;43.44;100385.22;146637;658;46010;-80
2022/06/12 12:42:28;;;;;;;;;6.00;5.50;;;;;28.45;43.90;100374.00;146643;595;45010;-79
2022/06/12 12:45:37;;;;;;;;;5.00;5.00;;;;;28.40;44.68;100379.44;146639;606;46010;-81
2022/06/12 12:48:29;;;;;;;;;5.00;4.00;;;;;28.41;42.76;100378.56;146642;571;45010;-80
2022/06/12 12:51:32;;;;;;;;;6.00;5.67;;;;;28.40;42.17;100382.09;146638;617;45018;-80
2022/06/12 12:54:25;;;;;;;;;5.00;5.00;;;;;28.46;42.68;100379.28;146625;569;46009;-80
2022/06/12 12:57:20;;;;;;;;;5.67;4.33;;;;;28.62;42.28;100384.19;146621;612;45018;-80
2022/06/12 13:00:40;;;;;;;;;5.00;5.00;;;;;27.30;44.94;100092.91;146621;585;46008;-81
2022/06/12 13:03:41;;;;;;;;;3.67;3.67;;;;;29.33;42.65;100367.81;146618;573;46018;-81
2022/06/12 13:07:18;;;;;;;;;4.00;4.00;;;;;28.74;43.08;100207.72;146623;596;46018;-81
2022/06/12 13:10:34;;;;;;;;;5.33;5.33;;;;;29.98;43.12;100361.25;146616;581;46019;-78
2022/06/12 13:14:08;;;;;;;;;6.00;6.00;;;;;30.19;42.01;100367.62;146621;601;46018;-77
2022/06/12 13:17:35;;;;;;;;;8.00;4.67;;;;;30.23;42.13;100365.75;146620;572;46012;-71
2022/06/12 13:20:57;;;;;;;;;3.00;3.00;;;;;30.21;43.44;100379.16;146618;595;46010;-69
2022/06/12 13:24:42;;;;;;;;;5.00;5.00;;;;;30.15;42.08;100369.53;146619;601;45019;-72
2022/06/12 13:27:37;;;;;;;;;5.00;5.00;;;;;29.98;38.58;100355.03;146619;604;46018;-81
2022/06/12 13:30:45;;;;;;;;;4.00;4.00;;;;;29.74;39.62;100352.25;146616;583;46018;-75
2022/06/12 13:33:39;;;;;;;;;3.00;3.00;;;;;29.58;40.02;100357.22;146621;570;46018;-77
2022/06/12 13:36:37;;;;;;;;;5.33;4.00;;;;;29.55;38.88;100354.63;146619;633;46018;-73
2022/06/12 13:39:41;;;;;;;;;6.00;6.00;;;;;29.61;39.77;100356.28;146617;573;46018;-75
2022/06/12 13:42:34;;;;;;;;;3.67;3.67;;;;;29.49;37.28;100362.84;146618;608;46010;-77
2022/06/12 13:45:26;;;;;;;;;7.00;5.00;;;;;29.37;39.25;100355.22;146621;608;46013;-74
2022/06/12 13:48:28;;;;;;;;;6.00;5.00;;;;;29.22;41.37;100357.50;146615;607;46012;-74
2022/06/12 13:51:53;;;;;;;;;4.00;4.00;;;;;28.99;41.20;100339.47;146621;595;46018;-74
2022/06/12 13:54:47;;;;;;;;;4.67;4.67;;;;;29.16;40.05;100354.09;146640;570;45010;-69
2022/06/12 13:57:41;;;;;;;;;4.00;4.00;;;;;29.14;39.83;100362.19;146642;563;44018;-70
2022/06/12 14:00:41;;;;;;;;;4.00;4.00;;;;;29.04;40.66;100362.53;146640;616;44916;-71
2022/06/12 14:03:39;;;;;;;;;3.67;3.67;;;;;29.00;42.51;100365.25;146643;671;45010;-70
2022/06/12 14:06:37;;;;;;;;;4.00;4.00;;;;;29.08;44.51;100369.50;146635;578;46010;-70
2022/06/12 14:09:36;;;;;;;;;3.67;3.67;;;;;29.12;43.87;100371.16;146642;605;45008;-70
2022/06/12 14:12:29;;;;;;;;;6.00;6.00;;;;;29.21;43.93;100357.53;146638;604;45010;-70
2022/06/12 14:15:38;;;;;;;;;7.50;6.50;;;;;29.36;44.37;100348.16;146641;654;45018;-72
2022/06/12 14:18:34;;;;;;;;;3.67;3.67;;;;;29.54;41.73;100350.22;146634;658;45019;-70
2022/06/12 14:21:46;;;;;;;;;4.67;3.33;;;;;29.68;42.79;100347.12;146642;573;45018;-78
2022/06/12 14:24:38;;;;;;;;;5.33;5.33;;;;;29.70;41.66;100345.28;146634;656;45019;-75
2022/06/12 14:27:43;;;;;;;;;5.67;4.00;;;;;29.70;42.82;100347.94;146643;591;45018;-75
2022/06/12 14:31:21;;;;;;;;;4.00;4.00;;;;;29.70;42.39;100350.62;146639;587;45026;-75
2022/06/12 14:34:28;;;;;;;;;2.00;2.00;;;;;29.61;39.84;100343.78;146643;633;45010;-75
2022/06/12 14:37:41;;;;;;;;;2.00;2.00;;;;;29.54;41.14;100338.66;146638;613;45915;-75